< Typhoon 202013 2020 Season Typhoon 202015 >
Typhoon 202014 (CHAN-HOM)
General InformationTrack Information on Google MapsDetailed Wind InformationForecast History on Google MapsAccess Analytics MapList of All Images || NewsDisaster Info.WeblogTrackbackTyphoon FrontTwiphoonTyphoon Now!Typhoon ImaginationJMA Disaster Info. XMLResourceGoogle EarthGE AnimationAtom FeedGeoJSON
Detalied Best Track (Time Zone = UTC)
Year Month Day Hour Lat. Long. Pressure (hPa) Wind (kt) Class Image Chart
2020 10 4 00 21.4 140.0 1004 0 2 Image Chart
2020 10 4 06 21.8 140.0 1000 0 2 Image Chart
2020 10 4 12 22.1 139.7 1002 0 2 Image Chart
2020 10 4 18 22.2 139.3 1000 0 2 Image Chart
2020 10 5 00 22.2 139.2 998 35 3 Image Chart
2020 10 5 06 22.4 139.1 996 35 3 Image Chart
2020 10 5 12 22.9 139.3 998 35 3 Image Chart
2020 10 5 18 23.3 139.1 996 40 3 Image Chart
2020 10 6 00 23.7 138.6 992 45 3 Image Chart
2020 10 6 06 24.1 138.1 992 45 3 Image Chart
2020 10 6 12 24.3 137.6 990 50 4 Image Chart
2020 10 6 18 24.7 136.9 980 55 4 Image Chart
2020 10 7 00 25.2 135.8 975 60 4 Image Chart
2020 10 7 06 25.7 134.7 970 65 5 Image Chart
2020 10 7 12 26.5 133.7 970 65 5 Image Chart
2020 10 7 15 26.8 133.3 970 65 5 Image Chart
2020 10 7 18 27.3 133.0 970 65 5 Image Chart
2020 10 7 21 27.6 132.8 970 65 5 Image Chart
2020 10 8 00 27.9 132.8 970 65 5 Image Chart
2020 10 8 03 28.2 132.9 970 65 5 Image Chart
2020 10 8 06 28.7 133.0 970 65 5 Image Chart
2020 10 8 09 29.1 133.1 970 65 5 Image Chart
2020 10 8 12 29.4 133.3 965 70 5 Image Chart
2020 10 8 15 29.8 133.4 965 70 5 Image Chart
2020 10 8 18 30.0 133.4 965 70 5 Image Chart
2020 10 8 21 30.1 133.4 965 70 5 Image Chart
2020 10 9 00 30.2 133.3 970 70 5 Image Chart
2020 10 9 03 30.4 133.3 970 70 5 Image Chart
2020 10 9 06 30.5 133.4 970 70 5 Image Chart
2020 10 9 09 30.7 133.7 975 65 5 Image Chart
2020 10 9 12 31.0 134.0 980 60 4 Image Chart
2020 10 9 15 31.2 134.4 980 60 4 Image Chart
2020 10 9 18 31.4 134.8 985 55 4 Image Chart
2020 10 9 21 31.8 135.4 985 55 4 Image Chart
2020 10 10 00 32.0 135.7 985 55 4 Image Chart
2020 10 10 03 32.1 136.0 985 55 4 Image Chart
2020 10 10 06 32.3 136.8 985 55 4 Image Chart
2020 10 10 09 32.2 137.7 985 55 4 Image Chart
2020 10 10 12 32.2 138.2 985 55 4 Image Chart
2020 10 10 15 32.3 138.9 990 50 4 Image Chart
2020 10 10 18 32.2 139.5 990 50 4 Image Chart
2020 10 10 21 32.4 140.0 990 50 4 Image Chart
2020 10 11 00 32.1 140.6 992 45 3 Image Chart
2020 10 11 06 31.8 141.3 996 40 3 Image Chart
2020 10 11 12 31.4 142.0 998 35 3 Image Chart
2020 10 11 18 30.8 142.2 1002 0 2 Image Chart
2020 10 12 00 30.3 142.3 1004 0 2 Image Chart
2020 10 12 06 29.6 142.5 1002 0 2 Image Chart
2020 10 12 12 29.1 142.7 1004 0 2 Image Chart
2020 10 12 18 28.9 143.2 1004 0 2 Image Chart
2020 10 13 00 28.6 144.1 1008 0 2 Image Chart
2020 10 13 06 28.6 144.6 1006 0 2 Image Chart
2020 10 13 12 28.6 144.8 1008 0 2 Image Chart
2020 10 13 18 28.6 144.5 1008 0 2 Image Chart
2020 10 14 00 28.5 144.4 1008 0 2 Image Chart
2020 10 14 06 28.7 144.5 1008 0 2 Image Chart
2020 10 14 12 28.8 144.2 1010 0 2 Image Chart
2020 10 14 18 28.9 144.1 1010 0 2 Image Chart
2020 10 15 00 29.4 144.0 1010 0 2 Image Chart
2020 10 15 06 29.7 143.8 1010 0 2 Image Chart
2020 10 15 12 30.0 144.1 1010 0 2 Image Chart
2020 10 15 18 30.5 144.3 1012 0 2 Image Chart
2020 10 16 00 31.1 145.5 1012 0 2 Image Chart
2020 10 16 06 32.0 146.5 1010 0 2 Image Chart
2020 10 16 12 33.1 147.4 1012 0 2 Image Chart
2020 10 16 18 34.7 149.5 1012 0 2 Image Chart
2020 10 17 00 36.4 152.9 1012 0 6 Image Chart
2020 10 17 06 37.2 155.9 1010 0 6 Image Chart
2020 10 17 12 38.1 159.0 1012 0 6 Image Chart
2020 10 17 18 39.0 161.9 1014 0 6 Image Chart
2020 10 18 00 39.0 164.4 1016 0 6 Image Chart
2020 10 18 06 38.7 166.7 1016 0 6 Image Chart
2020 10 18 12 38.5 168.9 1018 0 6 Image Chart
2020 10 18 18 38.4 170.0 1018 0 6 Image Chart
2020 10 19 00 38.2 171.3 1018 0 6 Image Chart
2020 10 19 06 38.2 171.8 1016 0 6 Image Chart
Japan Meteorological Agency Best Track Data | Correction Date : 2021-01-14
< Typhoon 202013 2020 Season Typhoon 202015 >

Help